Terminal Aerodrome Forecast
Issued by NWS Tulsa, OK

Home | Current Version | Previous Version | Text Only | Print | Product List | Glossary On
Versions: 1 2 3 4 5 6 7 8 9 10 11 12 13
461
FTUS44 KTSA 271305 AAA
TAFTUL
TAF AMD
KTUL 271305Z 2713/2812 17012KT P6SM OVC009
     FM271500 18012G20KT P6SM OVC015
     FM271800 18012G20KT P6SM OVC025
     FM272100 19017G24KT P6SM OVC050
     FM280000 20015G23KT P6SM OVC250
      TEMPO 2800/2804 VRB30G40KT 1SM TSRA BKN015CB
     FM280400 20008KT P6SM OVC050
     FM280600 32006KT P6SM OVC007=

USA.gov is the U.S. government's official web portal to all federal, state and local government web resources and services.